Time;durP1;ratioP1;P1;durP2;ratioP2;P2;SDS_P1;SDS_P2;PMS_P1;PMS_P2;Temp;Humidity;BMP_temperature;BMP_pressure;BME280_temperature;BME280_humidity;BME280_pressure;Samples;Min_cycle;Max_cycle;Signal;HPM_P1;HPM_P2
2021/04/27 00:00:07;;;;;;;20.55;15.00;;;8.20;90.40;;;;;;5057647;28;20029;-74
2021/04/27 00:02:33;;;;;;;17.50;14.93;;;8.10;90.70;;;;;;5057502;28;20031;-73
2021/04/27 00:04:59;;;;;;;18.45;16.13;;;8.10;90.60;;;;;;5057376;28;20119;-73
2021/04/27 00:07:24;;;;;;;19.33;14.88;;;8.10;90.20;;;;;;5057468;28;20025;-73
2021/04/27 00:09:50;;;;;;;17.65;15.35;;;8.20;89.90;;;;;;5057448;28;20021;-73
2021/04/27 00:12:16;;;;;;;19.13;14.35;;;8.30;89.70;;;;;;5057449;28;20096;-74
2021/04/27 00:14:42;;;;;;;16.80;14.35;;;8.30;88.90;;;;;;5057261;28;20168;-73
2021/04/27 00:17:07;;;;;;;16.23;13.85;;;8.40;88.30;;;;;;5057580;28;20025;-73
2021/04/27 00:19:33;;;;;;;15.27;12.93;;;8.30;88.00;;;;;;5057504;28;20429;-73
2021/04/27 00:21:59;;;;;;;16.85;14.23;;;8.40;87.90;;;;;;5057551;28;20025;-73
2021/04/27 00:24:28;;;;;;;16.48;13.13;;;8.50;88.40;;;;;;5057086;28;20035;-73
2021/04/27 00:26:53;;;;;;;14.23;12.73;;;8.50;88.30;;;;;;5057131;28;20437;-73
2021/04/27 00:29:19;;;;;;;17.92;13.13;;;8.60;88.20;;;;;;5057356;28;20029;-73
2021/04/27 00:31:44;;;;;;;16.42;12.05;;;8.60;87.90;;;;;;5057394;28;20025;-73
2021/04/27 00:34:10;;;;;;;13.32;11.50;;;8.70;87.60;;;;;;5056949;28;20341;-73
2021/04/27 00:36:36;;;;;;;19.90;11.25;;;8.70;87.60;;;;;;5056959;28;20021;-72
2021/04/27 00:39:02;;;;;;;17.02;11.40;;;8.80;87.60;;;;;;5056917;28;20037;-74
2021/04/27 00:41:28;;;;;;;18.35;14.65;;;8.80;87.10;;;;;;5056869;28;20025;-73
2021/04/27 00:43:53;;;;;;;16.98;11.45;;;8.80;86.50;;;;;;5056797;28;20158;-73
2021/04/27 00:46:19;;;;;;;15.43;11.90;;;8.80;86.50;;;;;;5057127;28;20048;-73
2021/04/27 00:48:45;;;;;;;14.13;11.50;;;8.90;87.30;;;;;;5057055;28;20032;-73
2021/04/27 00:51:10;;;;;;;16.10;11.23;;;8.90;86.90;;;;;;5057082;28;20417;-73
2021/04/27 00:53:36;;;;;;;14.75;11.77;;;8.90;87.20;;;;;;5057011;28;20056;-73
2021/04/27 00:56:02;;;;;;;15.25;12.32;;;9.00;86.60;;;;;;5057046;28;20414;-73
2021/04/27 00:58:28;;;;;;;14.10;12.40;;;8.90;85.80;;;;;;5056565;28;20032;-73
2021/04/27 01:00:54;;;;;;;16.67;11.45;;;8.90;85.50;;;;;;5056972;28;20021;-73
2021/04/27 01:03:20;;;;;;;14.02;11.98;;;8.80;85.70;;;;;;5056608;28;20060;-73
2021/04/27 01:05:46;;;;;;;13.50;11.07;;;8.80;86.30;;;;;;5056594;28;20036;-74
2021/04/27 01:08:25;;;;;;;16.00;12.20;;;8.70;86.60;;;;;;5056522;28;20035;-74
2021/04/27 01:11:26;;;;;;;16.40;11.70;;;8.70;85.80;;;;;;5056774;28;20029;-73
2021/04/27 01:14:12;;;;;;;17.35;11.88;;;8.70;86.10;;;;;;5055821;28;20045;-73
2021/04/27 01:16:50;;;;;;;;;;;8.60;86.30;;;;;;5056919;28;20418;-73
2021/04/27 01:19:23;;;;;;;15.15;11.23;;;8.60;86.70;;;;;;5056747;28;19954;-73
2021/04/27 01:21:50;;;;;;;14.68;11.48;;;8.70;86.10;;;;;;5056800;28;20033;-74
2021/04/27 01:24:41;;;;;;;13.95;10.57;;;8.70;86.00;;;;;;5056765;28;20415;-73
2021/04/27 01:27:08;;;;;;;13.93;10.95;;;8.90;86.20;;;;;;5056705;28;20107;-73
2021/04/27 01:29:34;;;;;;;12.07;10.13;;;9.00;86.30;;;;;;5056610;28;20048;-73
2021/04/27 01:32:03;;;;;;;12.40;10.65;;;9.10;86.10;;;;;;5056603;28;20033;-73
2021/04/27 01:34:34;;;;;;;15.07;10.82;;;8.90;86.50;;;;;;5056511;28;20104;-72
2021/04/27 01:37:02;;;;;;;14.95;11.95;;;8.80;85.70;;;;;;5056322;28;20029;-73
2021/04/27 01:39:28;;;;;;;15.18;12.02;;;8.80;84.80;;;;;;5056118;28;20470;-73
2021/04/27 01:41:55;;;;;;;15.25;11.50;;;8.90;84.20;;;;;;5056206;28;20406;-73
2021/04/27 01:44:21;;;;;;;13.65;11.50;;;8.90;84.00;;;;;;5056404;28;20049;-71
2021/04/27 01:46:47;;;;;;;17.08;11.25;;;9.00;83.70;;;;;;5056464;28;20025;-71
2021/04/27 01:49:16;;;;;;;14.40;10.35;;;9.10;84.50;;;;;;5056202;28;20421;-71
2021/04/27 01:51:42;;;;;;;13.85;9.75;;;9.20;84.90;;;;;;5056472;28;20033;-72
2021/04/27 01:54:09;;;;;;;15.70;10.05;;;9.30;84.50;;;;;;5056463;28;20109;-72
2021/04/27 01:56:35;;;;;;;10.30;9.07;;;9.30;84.30;;;;;;5056074;28;20064;-72
2021/04/27 01:59:02;;;;;;;12.75;8.73;;;9.30;83.90;;;;;;5056291;28;20309;-72
2021/04/27 02:01:28;;;;;;;11.85;9.07;;;9.40;84.20;;;;;;5056075;28;20031;-71
2021/04/27 02:03:53;;;;;;;12.25;8.55;;;9.40;84.20;;;;;;5056315;28;20108;-72
2021/04/27 02:06:19;;;;;;;11.50;9.43;;;9.40;82.80;;;;;;5055997;28;20112;-73
2021/04/27 02:08:57;;;;;;;12.43;9.10;;;9.50;81.50;;;;;;5056019;28;20036;-73
2021/04/27 02:11:24;;;;;;;14.10;10.02;;;9.60;81.90;;;;;;5056287;28;20035;-73
2021/04/27 02:13:50;;;;;;;15.07;10.60;;;9.60;82.40;;;;;;5059535;28;20047;-71
2021/04/27 02:16:18;;;;;;;12.93;10.88;;;9.60;82.60;;;;;;5059611;28;20401;-72
2021/04/27 02:18:53;;;;;;;15.73;10.88;;;9.60;83.80;;;;;;5059796;28;20112;-72
2021/04/27 02:21:19;;;;;;;10.52;9.25;;;9.40;84.50;;;;;;5059855;28;20040;-71
2021/04/27 02:23:45;;;;;;;10.07;8.73;;;9.30;84.10;;;;;;5059603;28;20029;-72
2021/04/27 02:26:14;;;;;;;12.02;10.07;;;9.20;83.40;;;;;;5059730;28;20025;-73
2021/04/27 02:28:41;;;;;;;12.43;9.30;;;9.20;84.20;;;;;;5059690;28;20039;-72
2021/04/27 02:31:07;;;;;;;18.70;11.20;;;9.10;83.70;;;;;;5059682;28;20020;-71
2021/04/27 02:33:34;;;;;;;17.90;11.90;;;9.10;83.70;;;;;;5059503;28;20345;-72
2021/04/27 02:36:01;;;;;;;13.60;10.50;;;9.10;84.10;;;;;;5059512;28;20036;-71
2021/04/27 02:38:27;;;;;;;11.90;9.88;;;9.20;84.30;;;;;;5059178;28;20033;-74
2021/04/27 02:40:55;;;;;;;13.98;9.77;;;9.30;83.90;;;;;;5059486;28;20024;-73
2021/04/27 02:43:21;;;;;;;10.55;9.18;;;9.30;83.90;;;;;;5059064;28;20133;-73
2021/04/27 02:45:48;;;;;;;12.35;9.05;;;9.40;83.80;;;;;;5059034;28;20029;-73
2021/04/27 02:48:16;;;;;;;14.02;9.23;;;9.40;82.60;;;;;;5059027;28;20480;-73
2021/04/27 02:50:45;;;;;;;11.85;9.13;;;9.50;83.40;;;;;;5058795;28;20032;-72
2021/04/27 02:53:12;;;;;;;12.95;8.55;;;9.60;83.00;;;;;;5058939;28;20025;-72
2021/04/27 02:55:38;;;;;;;12.80;9.00;;;9.60;83.40;;;;;;5059124;28;20043;-72
2021/04/27 02:58:04;;;;;;;14.25;9.65;;;9.60;81.30;;;;;;5059129;28;20056;-73
2021/04/27 03:00:29;;;;;;;12.68;10.27;;;9.60;81.70;;;;;;5058801;28;20408;-74
2021/04/27 03:02:55;;;;;;;13.02;10.88;;;9.60;82.30;;;;;;5058715;28;20028;-73
2021/04/27 03:05:21;;;;;;;15.52;10.52;;;9.60;82.20;;;;;;5058614;28;20049;-73
2021/04/27 03:07:47;;;;;;;13.93;9.73;;;9.60;82.20;;;;;;5058958;28;20040;-73
2021/04/27 03:10:13;;;;;;;18.58;11.32;;;9.50;82.40;;;;;;5058952;28;20048;-73
2021/04/27 03:12:40;;;;;;;15.05;11.40;;;9.40;81.60;;;;;;5058820;28;20405;-73
2021/04/27 03:15:06;;;;;;;13.57;9.70;;;9.50;82.40;;;;;;5058713;28;20024;-74
2021/04/27 03:17:32;;;;;;;14.77;12.10;;;9.50;82.90;;;;;;5058365;28;20436;-73
2021/04/27 03:19:58;;;;;;;14.50;10.50;;;9.30;83.30;;;;;;5058454;28;20025;-73
2021/04/27 03:22:24;;;;;;;14.50;10.57;;;9.30;84.80;;;;;;5058645;28;20151;-74
2021/04/27 03:24:49;;;;;;;13.00;10.05;;;9.40;85.40;;;;;;5057708;28;20424;-73
2021/04/27 03:27:15;;;;;;;13.90;10.57;;;9.40;85.30;;;;;;5058577;28;20047;-73
2021/04/27 03:29:41;;;;;;;13.82;10.43;;;9.40;85.40;;;;;;5058528;28;20366;-73
2021/04/27 03:32:07;;;;;;;14.77;11.57;;;9.40;85.20;;;;;;5058511;28;20048;-73
2021/04/27 03:34:33;;;;;;;15.45;11.32;;;9.30;84.70;;;;;;5058336;28;20313;-73
2021/04/27 03:36:59;;;;;;;16.65;10.88;;;9.20;86.10;;;;;;5058337;28;20033;-73
2021/04/27 03:39:24;;;;;;;14.35;12.02;;;9.10;86.00;;;;;;5057829;28;20460;-73
2021/04/27 03:41:50;;;;;;;16.13;12.63;;;8.90;86.00;;;;;;5057978;28;20029;-74
2021/04/27 03:44:16;;;;;;;15.30;11.95;;;8.90;86.50;;;;;;5057871;28;20025;-73
2021/04/27 03:46:42;;;;;;;13.60;11.43;;;8.80;86.90;;;;;;5057867;28;20032;-73
2021/04/27 03:49:07;;;;;;;16.48;11.52;;;8.70;87.10;;;;;;5057841;28;20025;-73
2021/04/27 03:51:33;;;;;;;15.82;11.60;;;8.60;87.80;;;;;;5058131;28;20111;-72
2021/04/27 03:53:59;;;;;;;15.32;13.20;;;8.50;87.60;;;;;;5058013;28;20031;-72
2021/04/27 03:56:25;;;;;;;14.98;12.82;;;8.60;87.80;;;;;;5057740;28;20090;-71
2021/04/27 03:58:50;;;;;;;18.38;13.70;;;8.60;87.50;;;;;;5057570;28;20025;-71
2021/04/27 04:01:16;;;;;;;17.48;13.18;;;8.70;87.70;;;;;;5057680;28;20029;-71
2021/04/27 04:03:42;;;;;;;14.40;11.65;;;8.80;87.80;;;;;;5057844;28;20071;-72
2021/04/27 04:06:08;;;;;;;15.98;12.15;;;8.80;87.60;;;;;;5057843;28;20025;-71
2021/04/27 04:08:35;;;;;;;16.58;13.10;;;8.90;87.60;;;;;;5057465;28;20021;-71
2021/04/27 04:11:01;;;;;;;15.20;13.50;;;8.90;87.10;;;;;;5057771;28;20024;-71
2021/04/27 04:13:26;;;;;;;17.27;13.30;;;8.90;87.30;;;;;;5057315;28;20086;-71
2021/04/27 04:15:52;;;;;;;17.77;14.70;;;8.90;87.70;;;;;;5057381;28;20033;-72
2021/04/27 04:18:19;;;;;;;22.38;15.23;;;8.90;87.00;;;;;;5057546;28;20072;-71
2021/04/27 04:20:45;;;;;;;19.08;14.32;;;8.90;87.10;;;;;;5057591;28;20386;-71
2021/04/27 04:23:10;;;;;;;16.52;13.63;;;8.90;87.60;;;;;;5057371;28;20032;-71
2021/04/27 04:25:36;;;;;;;18.58;12.82;;;8.90;87.30;;;;;;5057438;28;20029;-71
2021/04/27 04:28:02;;;;;;;18.83;13.75;;;8.90;86.70;;;;;;5057449;28;20108;-71
2021/04/27 04:30:28;;;;;;;15.38;13.50;;;9.00;87.40;;;;;;5057133;28;20245;-71
2021/04/27 04:32:54;;;;;;;17.40;14.40;;;8.90;86.60;;;;;;5057080;28;20032;-71
2021/04/27 04:35:22;;;;;;;13.82;12.20;;;8.90;87.00;;;;;;5056986;28;20470;-72
2021/04/27 04:37:48;;;;;;;15.98;13.05;;;9.00;88.00;;;;;;5057184;28;20066;-72
2021/04/27 04:40:16;;;;;;;16.27;12.80;;;9.10;87.70;;;;;;5056784;28;20053;-72
2021/04/27 04:42:42;;;;;;;19.20;14.70;;;9.20;87.40;;;;;;5057260;28;20035;-71
2021/04/27 04:45:10;;;;;;;15.38;13.38;;;9.30;86.80;;;;;;5057067;28;20021;-72
2021/04/27 04:47:36;;;;;;;18.83;14.60;;;9.30;87.20;;;;;;5056767;28;20017;-73
2021/04/27 04:50:04;;;;;;;16.20;14.48;;;9.30;86.60;;;;;;5057121;28;20029;-73
2021/04/27 04:52:29;;;;;;;19.15;14.15;;;9.30;85.90;;;;;;5057000;28;20017;-73
2021/04/27 04:54:55;;;;;;;18.20;14.45;;;9.30;86.10;;;;;;5057174;28;20364;-73
2021/04/27 04:57:21;;;;;;;16.50;13.25;;;9.40;86.30;;;;;;5056694;28;20025;-72
2021/04/27 04:59:48;;;;;;;18.73;13.65;;;9.50;85.90;;;;;;5056623;28;20025;-71
2021/04/27 05:02:13;;;;;;;17.50;14.00;;;9.40;85.80;;;;;;5056631;28;20107;-72
2021/04/27 05:04:39;;;;;;;18.42;13.40;;;9.40;84.90;;;;;;5056496;28;20120;-72
2021/04/27 05:07:09;;;;;;;17.92;14.05;;;9.30;85.30;;;;;;5056881;28;20051;-71
2021/04/27 05:09:35;;;;;;;19.20;14.40;;;9.30;86.40;;;;;;5056910;28;20036;-72
2021/04/27 05:12:02;;;;;;;18.55;14.05;;;9.20;87.50;;;;;;5056852;28;20024;-71
2021/04/27 05:14:28;;;;;;;21.75;14.65;;;9.20;87.20;;;;;;5056445;28;20029;-71
2021/04/27 05:16:56;;;;;;;22.33;14.95;;;9.20;87.10;;;;;;5056814;28;20028;-72
2021/04/27 05:19:22;;;;;;;17.45;13.13;;;9.30;87.30;;;;;;5056347;28;20032;-71
2021/04/27 05:21:48;;;;;;;17.02;14.65;;;9.40;87.40;;;;;;5056457;28;20025;-71
2021/04/27 05:24:13;;;;;;;22.48;13.95;;;9.40;87.70;;;;;;5056802;28;20106;-72
2021/04/27 05:26:39;;;;;;;15.00;12.40;;;9.60;87.90;;;;;;5056665;28;20429;-72
2021/04/27 05:29:05;;;;;;;16.85;12.13;;;9.60;87.90;;;;;;5056636;28;20428;-72
2021/04/27 05:31:30;;;;;;;14.40;10.25;;;9.60;84.70;;;;;;5056666;28;20359;-73
2021/04/27 05:33:56;;;;;;;13.00;9.65;;;9.60;85.80;;;;;;5056552;28;20044;-74
2021/04/27 05:36:22;;;;;;;15.30;10.93;;;9.60;84.60;;;;;;5056599;28;20405;-73
2021/04/27 05:38:47;;;;;;;13.05;10.93;;;9.60;83.90;;;;;;5056309;28;20424;-72
2021/04/27 05:41:13;;;;;;;15.07;11.00;;;9.70;84.60;;;;;;5055253;28;20429;-73
2021/04/27 05:43:39;;;;;;;15.52;10.75;;;9.80;83.50;;;;;;5056169;28;20436;-73
2021/04/27 05:46:05;;;;;;;17.55;11.98;;;9.80;84.70;;;;;;5056548;28;20018;-73
2021/04/27 05:48:30;;;;;;;20.27;14.15;;;9.80;86.20;;;;;;5059572;28;20029;-73
2021/04/27 05:50:56;;;;;;;20.42;13.48;;;9.70;86.90;;;;;;5060514;28;20028;-74
2021/04/27 05:53:21;;;;;;;15.98;13.65;;;9.70;85.80;;;;;;5060070;28;20037;-73
2021/04/27 05:55:47;;;;;;;19.38;13.60;;;9.70;85.90;;;;;;5060353;28;20036;-73
2021/04/27 05:58:13;;;;;;;17.02;13.38;;;9.70;86.00;;;;;;5060264;28;20448;-74
2021/04/27 06:00:39;;;;;;;17.63;14.23;;;9.70;87.10;;;;;;5060249;28;20025;-74
2021/04/27 06:03:05;;;;;;;18.85;14.00;;;9.70;87.70;;;;;;5059842;28;20033;-73
2021/04/27 06:05:31;;;;;;;17.70;14.02;;;9.80;87.10;;;;;;5059754;28;20032;-73
2021/04/27 06:07:57;;;;;;;16.83;13.18;;;9.80;86.70;;;;;;5060100;28;20029;-74
2021/04/27 06:10:23;;;;;;;17.20;12.38;;;9.90;86.30;;;;;;5060077;28;20035;-73
2021/04/27 06:12:49;;;;;;;14.95;12.73;;;9.90;85.20;;;;;;5059686;28;20123;-73
2021/04/27 06:15:17;;;;;;;14.75;11.98;;;10.00;87.20;;;;;;5059914;28;20021;-73
2021/04/27 06:17:44;;;;;;;15.48;12.68;;;10.00;86.60;;;;;;5059800;28;20047;-73
2021/04/27 06:20:10;;;;;;;15.60;12.35;;;10.10;87.50;;;;;;5059596;28;20021;-73
2021/04/27 06:22:36;;;;;;;13.93;11.55;;;10.20;86.60;;;;;;5059836;28;20056;-74
2021/04/27 06:25:03;;;;;;;16.38;12.18;;;10.10;85.90;;;;;;5059931;28;20029;-73
2021/04/27 06:27:29;;;;;;;17.77;12.38;;;10.20;85.50;;;;;;5059716;28;20371;-73
2021/04/27 06:29:56;;;;;;;15.30;12.90;;;10.10;84.90;;;;;;5059806;28;20037;-73
2021/04/27 06:32:22;;;;;;;17.05;12.35;;;10.10;85.70;;;;;;5059477;28;20024;-72
2021/04/27 06:34:48;;;;;;;13.35;11.95;;;10.00;87.00;;;;;;5059225;28;20094;-72
2021/04/27 06:37:14;;;;;;;15.98;12.05;;;10.00;88.20;;;;;;5059555;28;20032;-72
2021/04/27 06:39:40;;;;;;;16.48;11.68;;;10.00;88.60;;;;;;5059079;28;20049;-73
2021/04/27 06:42:07;;;;;;;15.88;11.18;;;10.10;87.90;;;;;;5059454;28;20103;-73
2021/04/27 06:44:34;;;;;;;13.10;10.65;;;10.20;88.30;;;;;;5059019;28;20021;-73
2021/04/27 06:47:00;;;;;;;13.68;10.82;;;10.20;88.90;;;;;;5059399;28;20413;-73
2021/04/27 06:49:26;;;;;;;12.27;10.65;;;10.20;88.30;;;;;;5059008;28;20498;-73
2021/04/27 06:51:52;;;;;;;13.18;10.63;;;10.20;86.70;;;;;;5058996;28;20072;-73
2021/04/27 06:54:18;;;;;;;14.82;11.15;;;10.30;87.00;;;;;;5059157;28;20060;-73
2021/04/27 06:56:44;;;;;;;16.42;11.88;;;10.30;85.90;;;;;;5059141;28;20332;-73
2021/04/27 06:59:12;;;;;;;14.55;11.77;;;10.40;85.00;;;;;;5058642;28;20108;-71
2021/04/27 07:01:38;;;;;;;12.90;9.73;;;10.50;84.60;;;;;;5059128;28;20408;-71
2021/04/27 07:04:04;;;;;;;11.50;8.98;;;10.50;81.50;;;;;;5058974;28;20052;-73
2021/04/27 07:06:29;;;;;;;10.50;9.07;;;10.50;79.90;;;;;;5058995;28;20033;-74
2021/04/27 07:08:55;;;;;;;12.63;9.00;;;10.50;81.80;;;;;;5058923;28;20100;-73
2021/04/27 07:11:20;;;;;;;16.98;11.23;;;10.40;82.40;;;;;;5058918;28;20039;-73
2021/04/27 07:13:46;;;;;;;12.70;10.18;;;10.50;83.50;;;;;;5058842;28;20025;-73
2021/04/27 07:16:15;;;;;;;15.95;10.30;;;10.50;86.10;;;;;;5058514;28;20040;-73
2021/04/27 07:18:41;;;;;;;15.75;9.93;;;10.50;85.10;;;;;;5058462;28;20025;-73
2021/04/27 07:21:06;;;;;;;13.35;9.35;;;10.60;84.30;;;;;;5058466;28;20372;-73
2021/04/27 07:23:32;;;;;;;13.43;10.52;;;10.60;83.40;;;;;;5058409;28;20031;-73
2021/04/27 07:25:58;;;;;;;13.70;9.88;;;10.60;82.60;;;;;;5058636;28;20028;-73
2021/04/27 07:28:24;;;;;;;13.98;10.60;;;10.70;83.40;;;;;;5058614;28;20329;-73
2021/04/27 07:30:51;;;;;;;15.48;10.40;;;10.70;83.80;;;;;;5058542;28;20036;-73
2021/04/27 07:33:17;;;;;;;14.43;10.43;;;10.80;84.20;;;;;;5058510;28;20321;-72
2021/04/27 07:35:43;;;;;;;9.80;8.75;;;10.90;82.30;;;;;;5058321;28;20033;-73
2021/04/27 07:38:08;;;;;;;13.35;8.88;;;10.90;79.50;;;;;;5058038;28;20028;-73
2021/04/27 07:40:36;;;;;;;13.25;9.75;;;10.80;80.10;;;;;;5057965;28;20052;-73
2021/04/27 07:43:02;;;;;;;13.32;9.20;;;10.70;79.90;;;;;;5058353;28;20143;-73
2021/04/27 07:45:31;;;;;;;11.85;9.02;;;10.70;79.10;;;;;;5058154;28;20029;-73
2021/04/27 07:47:58;;;;;;;10.73;8.93;;;10.70;78.80;;;;;;5058172;28;20029;-73
2021/04/27 07:50:24;;;;;;;12.02;9.50;;;10.70;79.30;;;;;;5057919;28;20033;-73
2021/04/27 07:52:50;;;;;;;10.18;9.07;;;10.80;81.00;;;;;;5057820;28;20091;-74
2021/04/27 07:55:16;;;;;;;19.85;9.15;;;10.90;80.20;;;;;;5058044;28;20029;-73
2021/04/27 07:57:41;;;;;;;12.05;8.25;;;11.10;79.60;;;;;;5057926;28;20317;-73
2021/04/27 08:00:11;;;;;;;14.35;8.68;;;11.10;78.20;;;;;;5057720;28;20025;-73
2021/04/27 08:02:37;;;;;;;17.60;9.45;;;11.20;79.20;;;;;;5057951;28;20043;-73
2021/04/27 08:05:04;;;;;;;11.35;8.73;;;11.20;77.50;;;;;;5057785;28;20020;-71
2021/04/27 08:07:30;;;;;;;13.15;9.52;;;11.20;78.40;;;;;;5057850;28;20076;-73
2021/04/27 08:09:55;;;;;;;12.30;10.10;;;11.20;77.10;;;;;;5057262;28;20039;-73
2021/04/27 08:12:21;;;;;;;10.95;9.65;;;11.10;78.20;;;;;;5057765;28;20413;-73
2021/04/27 08:14:47;;;;;;;12.02;9.73;;;11.10;80.10;;;;;;5057647;28;20036;-73
2021/04/27 08:17:13;;;;;;;14.20;10.07;;;11.30;79.80;;;;;;5057650;28;20035;-73
2021/04/27 08:19:39;;;;;;;18.48;9.70;;;11.40;78.50;;;;;;5057208;28;20043;-73
2021/04/27 08:22:06;;;;;;;11.93;8.65;;;11.50;78.90;;;;;;5057319;28;20104;-73
2021/04/27 08:24:36;;;;;;;13.50;8.18;;;11.70;76.70;;;;;;5057629;28;20107;-73
2021/04/27 08:27:03;;;;;;;13.35;8.55;;;11.80;74.80;;;;;;5057482;28;20051;-73
2021/04/27 08:29:29;;;;;;;12.38;8.43;;;11.90;74.70;;;;;;5057409;28;20326;-73
2021/04/27 08:31:54;;;;;;;12.27;7.97;;;12.10;73.70;;;;;;5057362;28;20031;-73
2021/04/27 08:34:20;;;;;;;12.10;8.73;;;12.20;74.10;;;;;;5057293;28;20036;-73
2021/04/27 08:36:48;;;;;;;11.43;9.45;;;12.20;74.40;;;;;;5057051;28;20039;-73
2021/04/27 08:39:13;;;;;;;10.00;8.18;;;12.20;76.90;;;;;;5056923;28;20037;-72
2021/04/27 08:41:39;;;;;;;10.73;9.02;;;12.30;74.90;;;;;;5056921;28;20031;-71
2021/04/27 08:44:05;;;;;;;11.88;9.20;;;12.50;75.20;;;;;;5057167;28;20017;-71
2021/04/27 08:46:31;;;;;;;10.57;9.43;;;12.50;76.80;;;;;;5056817;28;20021;-71
2021/04/27 08:48:57;;;;;;;12.05;9.68;;;12.60;74.00;;;;;;5056833;28;20427;-71
2021/04/27 08:51:23;;;;;;;12.13;9.13;;;12.90;74.40;;;;;;5056808;28;20035;-71
2021/04/27 08:53:49;;;;;;;12.75;10.00;;;13.00;76.00;;;;;;5056578;28;20029;-71
2021/04/27 08:56:15;;;;;;;14.40;10.32;;;13.00;73.70;;;;;;5057008;28;20333;-72
2021/04/27 08:58:41;;;;;;;11.45;9.45;;;13.10;74.30;;;;;;5056646;28;20021;-71
2021/04/27 09:01:07;;;;;;;12.18;9.70;;;13.10;70.20;;;;;;5057033;28;20021;-71
2021/04/27 09:03:53;;;;;;;11.82;8.85;;;13.00;72.80;;;;;;5056590;28;20051;-71
2021/04/27 09:06:20;;;;;;;;;;;12.90;71.90;;;;;;5057090;28;20451;-72
2021/04/27 09:08:47;;;;;;;13.40;9.98;;;12.80;73.70;;;;;;5056888;28;19905;-71
2021/04/27 09:11:38;;;;;;;14.30;9.40;;;12.80;75.40;;;;;;5056876;28;20039;-71
2021/04/27 09:14:17;;;;;;;14.27;9.57;;;12.90;71.50;;;;;;5056786;28;20021;-71
2021/04/27 09:16:45;;;;;;;11.80;10.15;;;12.70;74.50;;;;;;5056803;28;20032;-72
2021/04/27 09:19:26;;;;;;;13.60;9.60;;;12.60;73.30;;;;;;5056375;28;20056;-71
2021/04/27 09:22:00;;;;;;;13.48;10.70;;;12.50;74.20;;;;;;5057222;28;20317;-71
2021/04/27 09:24:26;;;;;;;10.93;9.77;;;12.50;76.10;;;;;;5061025;28;20021;-71
2021/04/27 09:26:54;;;;;;;17.83;11.60;;;12.50;76.20;;;;;;5060873;28;20035;-71
2021/04/27 09:29:34;;;;;;;11.43;10.18;;;12.50;75.40;;;;;;5060812;28;20061;-72
2021/04/27 09:31:59;;;;;;;14.57;9.52;;;12.60;74.90;;;;;;5060806;28;20089;-71
2021/04/27 09:34:31;;;;;;;16.08;10.30;;;12.80;73.50;;;;;;5060684;28;20428;-71
2021/04/27 09:37:04;;;;;;;12.80;9.43;;;12.90;75.10;;;;;;5060419;28;20431;-71
2021/04/27 09:39:40;;;;;;;19.17;9.73;;;12.90;75.90;;;;;;5060259;28;20073;-72
2021/04/27 09:42:24;;;;;;;11.75;10.18;;;12.80;75.50;;;;;;5060344;28;20487;-72
2021/04/27 09:44:55;;;;;;;11.85;9.23;;;12.70;76.60;;;;;;5060216;28;20028;-71
2021/04/27 09:47:30;;;;;;;14.15;9.82;;;12.80;78.60;;;;;;5060532;28;20431;-71
2021/04/27 09:50:08;;;;;;;14.33;9.40;;;13.00;76.00;;;;;;5060203;28;20441;-71
2021/04/27 09:52:47;;;;;;;14.10;10.40;;;13.00;74.90;;;;;;5060452;28;20104;-71
2021/04/27 09:55:20;;;;;;;12.43;9.88;;;13.00;73.90;;;;;;5060319;28;20033;-71
2021/04/27 09:57:50;;;;;;;21.35;10.38;;;13.10;74.40;;;;;;5060308;28;20055;-71
2021/04/27 10:00:21;;;;;;;18.88;9.57;;;13.00;75.10;;;;;;5060314;28;20098;-71
2021/04/27 10:02:47;;;;;;;14.32;10.52;;;13.00;75.60;;;;;;5060200;28;20409;-71
2021/04/27 10:05:13;;;;;;;10.82;9.65;;;13.00;77.20;;;;;;5059786;28;20028;-71
2021/04/27 10:07:39;;;;;;;10.35;8.77;;;13.20;74.90;;;;;;5059818;28;20021;-71
2021/04/27 10:10:08;;;;;;;12.13;8.52;;;13.20;74.70;;;;;;5060108;28;20029;-71
2021/04/27 10:12:35;;;;;;;12.48;8.85;;;13.30;73.00;;;;;;5059759;28;20014;-71
2021/04/27 10:15:01;;;;;;;11.48;8.75;;;13.30;73.60;;;;;;5053314;28;20033;-71
2021/04/27 10:17:28;;;;;;;11.45;9.27;;;13.20;72.00;;;;;;5051031;28;20063;-71
2021/04/27 10:19:54;;;;;;;12.65;8.82;;;13.30;72.90;;;;;;5059826;28;20051;-71
2021/04/27 10:22:19;;;;;;;12.88;8.90;;;13.30;73.10;;;;;;5059572;28;20413;-71
2021/04/27 10:24:47;;;;;;;13.00;8.40;;;13.40;72.10;;;;;;5059898;28;20028;-71
2021/04/27 10:27:13;;;;;;;11.32;8.68;;;13.50;73.70;;;;;;5059766;28;20021;-71
2021/04/27 10:29:39;;;;;;;9.52;8.25;;;13.40;73.30;;;;;;5059706;28;20428;-71
2021/04/27 10:32:22;;;;;;;11.52;8.82;;;13.40;72.30;;;;;;5059345;28;20021;-71
2021/04/27 10:34:57;;;;;;;10.80;7.85;;;13.20;72.10;;;;;;5058866;28;20033;-71
2021/04/27 10:37:43;;;;;;;9.77;7.60;;;13.20;71.30;;;;;;5059288;28;20032;-71
2021/04/27 10:40:10;;;;;;;8.32;7.43;;;13.10;71.90;;;;;;5058352;28;20090;-71
2021/04/27 10:42:35;;;;;;;10.63;7.45;;;13.10;72.10;;;;;;5059453;28;20317;-71
2021/04/27 10:45:07;;;;;;;8.77;7.75;;;13.10;70.00;;;;;;5059346;28;20036;-71
2021/04/27 10:47:42;;;;;;;12.18;7.63;;;13.10;73.70;;;;;;5059037;28;20119;-71
2021/04/27 10:50:09;;;;;;;12.65;7.75;;;13.00;74.20;;;;;;5059341;28;20049;-71
2021/04/27 10:52:41;;;;;;;11.73;7.43;;;12.90;71.30;;;;;;5058996;28;20053;-71
2021/04/27 10:55:29;;;;;;;11.55;7.63;;;12.90;73.30;;;;;;5059172;28;20033;-71
2021/04/27 10:58:00;;;;;;;10.27;7.80;;;12.80;75.60;;;;;;5059084;28;20146;-71
2021/04/27 11:00:33;;;;;;;9.85;7.32;;;12.80;73.90;;;;;;5059180;28;20360;-71
2021/04/27 11:03:23;;;;;;;9.77;7.93;;;12.80;71.40;;;;;;5058813;28;20033;-71
2021/04/27 11:06:00;;;;;;;11.23;7.85;;;12.80;73.20;;;;;;5059063;28;20021;-71
2021/04/27 11:08:50;;;;;;;13.20;7.47;;;12.90;72.20;;;;;;5059048;28;20028;-71
2021/04/27 11:11:31;;;;;;;13.38;7.55;;;12.90;70.60;;;;;;5058923;28;20029;-71
2021/04/27 11:14:19;;;;;;;8.32;7.53;;;12.90;73.50;;;;;;5058867;28;20299;-71
2021/04/27 11:16:54;;;;;;;11.90;7.22;;;12.80;70.90;;;;;;5058592;28;20028;-71
2021/04/27 11:19:20;;;;;;;13.18;8.13;;;12.70;73.00;;;;;;5058743;28;20033;-71
2021/04/27 11:21:51;;;;;;;9.23;8.00;;;12.80;72.90;;;;;;5058842;28;20052;-71
2021/04/27 11:27:39;;;;;;;11.20;8.05;;;12.80;74.10;;;;;;5058633;28;20032;-71
2021/04/27 11:30:09;;;;;;;13.23;8.15;;;12.90;73.10;;;;;;5058575;28;20025;-71
2021/04/27 11:32:37;;;;;;;8.73;7.45;;;13.00;73.10;;;;;;5058762;28;20317;-71
2021/04/27 11:35:11;;;;;;;8.93;7.60;;;13.00;72.90;;;;;;5058451;28;20100;-71
2021/04/27 11:37:48;;;;;;;12.20;7.65;;;13.10;73.70;;;;;;5058814;28;20039;-71
2021/04/27 11:40:36;;;;;;;11.80;7.82;;;13.00;71.70;;;;;;5058000;28;20052;-71
2021/04/27 11:43:08;;;;;;;8.57;7.45;;;13.00;73.30;;;;;;5058025;28;20025;-71
2021/04/27 11:45:37;;;;;;;8.60;7.32;;;12.80;73.40;;;;;;5057378;28;20036;-71
2021/04/27 11:48:03;;;;;;;13.15;8.82;;;12.70;72.90;;;;;;5057957;28;20057;-71
2021/04/27 11:50:31;;;;;;;10.10;8.43;;;12.90;74.20;;;;;;5058248;28;20317;-71
2021/04/27 11:53:03;;;;;;;12.82;8.00;;;12.90;72.80;;;;;;5058115;28;20348;-71
2021/04/27 11:55:36;;;;;;;10.93;8.02;;;12.90;74.20;;;;;;5058057;28;20090;-71
2021/04/27 11:58:05;;;;;;;9.00;7.30;;;13.00;73.20;;;;;;5057964;28;20025;-71
2021/04/27 12:00:56;;;;;;;8.10;7.28;;;13.10;73.80;;;;;;5058019;28;20071;-71
2021/04/27 12:03:24;;;;;;;10.30;7.30;;;13.30;73.00;;;;;;5057598;28;20025;-71
2021/04/27 12:05:54;;;;;;;12.73;7.05;;;13.40;74.00;;;;;;5057599;28;20028;-71
2021/04/27 12:08:22;;;;;;;12.68;6.90;;;13.50;73.90;;;;;;5057829;28;20102;-71
2021/04/27 12:11:03;;;;;;;12.48;7.13;;;13.50;74.40;;;;;;5057842;28;20318;-71
2021/04/27 12:13:29;;;;;;;9.18;7.65;;;13.60;72.80;;;;;;5057750;28;20047;-71
2021/04/27 12:16:07;;;;;;;11.52;7.30;;;13.60;73.50;;;;;;5057393;28;20504;-71
2021/04/27 12:18:54;;;;;;;9.30;7.57;;;13.50;71.80;;;;;;5057644;28;20056;-71
2021/04/27 12:21:44;;;;;;;11.80;7.63;;;13.20;74.40;;;;;;5057281;28;20489;-71
2021/04/27 12:24:14;;;;;;;10.30;7.63;;;13.20;73.30;;;;;;5057587;28;20040;-73
2021/04/27 12:26:49;;;;;;;11.93;7.32;;;13.20;74.50;;;;;;5057539;28;20021;-71
2021/04/27 12:29:15;;;;;;;7.82;6.82;;;13.10;73.60;;;;;;5057206;28;20033;-73
2021/04/27 12:31:42;;;;;;;7.80;7.00;;;13.10;75.40;;;;;;5057452;28;20095;-71
2021/04/27 12:34:14;;;;;;;10.05;7.07;;;13.20;75.40;;;;;;5057328;28;20025;-71
2021/04/27 12:36:45;;;;;;;9.48;7.30;;;13.20;73.70;;;;;;5057344;28;20119;-71
2021/04/27 12:39:23;;;;;;;7.60;6.63;;;13.10;74.90;;;;;;5056986;28;20048;-73
2021/04/27 12:41:50;;;;;;;9.38;6.72;;;13.00;74.20;;;;;;5057264;28;20356;-73
2021/04/27 12:44:40;;;;;;;9.80;6.63;;;12.90;75.50;;;;;;5056866;28;20028;-73
2021/04/27 12:47:28;;;;;;;9.02;6.85;;;12.90;74.40;;;;;;5056906;28;20021;-73